Burrton, Kansas
Current Conditions -  °F | °C
As of 6:52 AM on Friday 24 Oct 2014 (Local Time) from KHUT Reporting Station
Haze Haze  
Wind Chill: 14°   Ceiling: 300
Heat Index: 14°   Visibility: 2.5mi
Dew Point: 13°   Wind: 6mph
Humidity: 93%   Direction: 180°S
Pressure: 30.05"   Gusts: NA
Location:  38.02°N, 97.67°W
Report Text: KHUT 241152Z 18005KT 2 1/2SM BR OVC003 14/13 A3005 RMK AO2 SLP160 T01440133 10156 20133 55003
Loading
Personal Weather Stations






























Interactive Weather Map
Tropical Storm Tracking
New forecast layout! Learn more

10-Day Weather Forecast

Advertisements
Track Severe Weather on mobile